createdAt,value
2022-11-12T00:01:23.327Z,9.80
2022-11-12T00:04:08.797Z,11.60
2022-11-12T00:06:53.581Z,13.60
2022-11-12T00:09:38.805Z,9.50
2022-11-12T00:12:23.630Z,10.00
2022-11-12T00:15:09.255Z,12.10
2022-11-12T00:17:54.219Z,9.90
2022-11-12T00:20:39.138Z,11.40
2022-11-12T00:23:24.274Z,9.30
2022-11-12T00:26:09.739Z,9.00
2022-11-12T00:28:55.210Z,9.50
2022-11-12T00:31:40.219Z,10.30
2022-11-12T00:34:25.086Z,10.20
2022-11-12T00:37:10.171Z,9.50
2022-11-12T00:39:54.961Z,9.80
2022-11-12T00:42:40.055Z,16.90
2022-11-12T00:45:24.861Z,7.90
2022-11-12T00:48:12.204Z,9.50
2022-11-12T00:51:02.093Z,10.00
2022-11-12T00:53:48.426Z,10.70
2022-11-12T00:56:35.664Z,11.10
2022-11-12T00:59:21.448Z,9.20
2022-11-12T01:02:06.404Z,8.70
2022-11-12T01:04:51.433Z,8.90
2022-11-12T01:07:36.250Z,9.20
2022-11-12T01:10:21.008Z,10.30
2022-11-12T01:13:06.054Z,8.00
2022-11-12T01:15:50.851Z,11.10
2022-11-12T01:18:35.993Z,11.50
2022-11-12T01:21:23.054Z,8.20
2022-11-12T01:24:08.579Z,8.90
2022-11-12T01:26:53.317Z,10.20
2022-11-12T01:29:38.214Z,10.40
2022-11-12T01:32:22.819Z,11.90
2022-11-12T01:35:07.879Z,11.30
2022-11-12T01:37:52.990Z,12.00
2022-11-12T01:40:37.608Z,10.10
2022-11-12T01:43:22.682Z,11.40
2022-11-12T01:46:19.370Z,8.70
2022-11-12T01:49:08.292Z,8.00
2022-11-12T01:51:56.274Z,7.00
2022-11-12T01:54:46.154Z,8.60
2022-11-12T01:57:37.072Z,10.40
2022-11-12T02:00:21.928Z,10.60
2022-11-12T02:03:14.414Z,9.60
2022-11-12T02:06:07.351Z,8.50
2022-11-12T02:08:52.789Z,8.40
2022-11-12T02:11:37.448Z,8.20
2022-11-12T02:14:22.232Z,6.80
2022-11-12T02:17:07.456Z,7.40
2022-11-12T02:19:52.416Z,8.80
2022-11-12T02:22:37.099Z,7.30
2022-11-12T02:25:24.027Z,8.20
2022-11-12T02:28:09.162Z,7.40
2022-11-12T02:30:54.093Z,7.80
2022-11-12T02:33:39.362Z,9.30
2022-11-12T02:36:25.114Z,7.50
2022-11-12T02:39:09.732Z,8.10
2022-11-12T02:41:54.784Z,8.70
2022-11-12T02:44:39.725Z,7.40
2022-11-12T02:47:24.613Z,5.90
2022-11-12T02:50:09.527Z,9.80
2022-11-12T02:52:54.353Z,7.50
2022-11-12T02:55:39.316Z,6.60
2022-11-12T02:58:24.601Z,6.40
2022-11-12T03:01:09.483Z,7.40
2022-11-12T03:03:54.697Z,10.30
2022-11-12T03:06:40.000Z,8.30
2022-11-12T03:09:25.026Z,8.70
2022-11-12T03:12:10.434Z,9.80
2022-11-12T03:14:55.499Z,7.20
2022-11-12T03:17:40.593Z,7.10
2022-11-12T03:20:26.193Z,8.00
2022-11-12T03:23:11.117Z,10.20
2022-11-12T03:25:56.329Z,7.80
2022-11-12T03:28:40.896Z,8.90
2022-11-12T03:31:26.069Z,7.60
2022-11-12T03:34:11.221Z,10.00
2022-11-12T03:36:56.145Z,9.70
2022-11-12T03:39:41.005Z,9.90
2022-11-12T03:42:25.984Z,8.90
2022-11-12T03:45:10.665Z,7.60
2022-11-12T03:47:57.462Z,7.90
2022-11-12T03:50:42.171Z,9.00
2022-11-12T03:53:28.209Z,12.40
2022-11-12T03:56:13.187Z,9.60
2022-11-12T03:58:58.359Z,13.40
2022-11-12T04:01:43.190Z,9.60
2022-11-12T04:04:47.870Z,9.90
2022-11-12T04:07:51.111Z,8.20
2022-11-12T04:10:35.735Z,13.40
2022-11-12T04:13:27.091Z,13.50
2022-11-12T04:16:39.552Z,11.90
2022-11-12T04:19:42.995Z,11.30
2022-11-12T04:22:29.360Z,12.20
2022-11-12T04:25:32.799Z,13.20
2022-11-12T04:28:17.556Z,11.60
2022-11-12T04:31:02.824Z,14.80
2022-11-12T04:33:47.307Z,10.00
2022-11-12T04:36:32.339Z,15.30
2022-11-12T04:39:17.254Z,11.90
2022-11-12T04:42:21.842Z,14.80
2022-11-12T04:45:09.897Z,14.30
2022-11-12T04:47:54.893Z,14.40
2022-11-12T04:50:40.906Z,12.10
2022-11-12T04:53:27.299Z,14.10
2022-11-12T04:56:12.435Z,11.80
2022-11-12T04:58:57.608Z,13.70
2022-11-12T05:01:42.604Z,14.80
2022-11-12T05:04:28.686Z,17.10
2022-11-12T05:07:13.893Z,25.40
2022-11-12T05:09:58.790Z,12.90
2022-11-12T05:12:44.083Z,15.50
2022-11-12T05:15:29.184Z,11.50
2022-11-12T05:18:14.162Z,9.20
2022-11-12T05:21:18.616Z,10.60
2022-11-12T05:24:03.878Z,13.30
2022-11-12T05:26:48.656Z,13.10
2022-11-12T05:29:33.842Z,14.10
2022-11-12T05:32:21.298Z,10.60
2022-11-12T05:35:06.747Z,10.00
2022-11-12T05:37:51.764Z,9.70
2022-11-12T05:40:36.545Z,11.60
2022-11-12T05:43:21.392Z,11.60
2022-11-12T05:46:06.301Z,18.80
2022-11-12T05:48:51.332Z,18.10
2022-11-12T05:51:36.465Z,16.00
2022-11-12T05:54:21.265Z,12.30
2022-11-12T05:57:05.917Z,12.70
2022-11-12T05:59:50.861Z,12.60
2022-11-12T06:02:35.572Z,9.70
2022-11-12T06:05:20.600Z,14.50
2022-11-12T06:08:05.988Z,16.00
2022-11-12T06:10:52.246Z,15.00
2022-11-12T06:13:37.024Z,15.40
2022-11-12T06:16:21.784Z,15.80
2022-11-12T06:19:06.890Z,12.10
2022-11-12T06:21:51.411Z,13.20
2022-11-12T06:24:36.578Z,13.90
2022-11-12T06:27:23.287Z,11.90
2022-11-12T06:30:08.662Z,19.00
2022-11-12T06:32:54.015Z,19.30
2022-11-12T06:35:42.721Z,13.20
2022-11-12T06:38:33.059Z,14.00
2022-11-12T06:41:17.792Z,11.40
2022-11-12T06:44:04.083Z,10.10
2022-11-12T06:46:49.310Z,10.50
2022-11-12T06:49:34.405Z,10.90
2022-11-12T06:52:19.180Z,14.00
2022-11-12T06:55:04.717Z,23.50
2022-11-12T06:57:53.113Z,19.00
2022-11-12T07:00:37.895Z,16.40
2022-11-12T07:03:23.023Z,17.60
2022-11-12T07:06:17.716Z,9.90
2022-11-12T07:09:03.654Z,10.40
2022-11-12T07:11:49.403Z,20.90
2022-11-12T07:14:34.278Z,15.20
2022-11-12T07:17:19.124Z,18.80
2022-11-12T07:20:04.782Z,19.00
2022-11-12T07:22:49.636Z,17.10
2022-11-12T07:25:34.804Z,16.40
2022-11-12T07:28:19.441Z,12.30
2022-11-12T07:31:07.138Z,27.50
2022-11-12T07:33:52.233Z,23.60
2022-11-12T07:36:36.955Z,17.40
2022-11-12T07:39:21.937Z,17.70
2022-11-12T07:42:07.239Z,17.50
2022-11-12T07:44:52.458Z,13.70
2022-11-12T07:47:37.331Z,14.80
2022-11-12T07:50:22.306Z,12.50
2022-11-12T07:53:07.221Z,20.30
2022-11-12T07:55:56.261Z,22.60
2022-11-12T07:58:41.447Z,21.10
2022-11-12T08:01:31.013Z,16.60
2022-11-12T08:04:16.332Z,9.80
2022-11-12T08:07:01.601Z,10.30
2022-11-12T08:09:46.808Z,11.10
2022-11-12T08:12:31.787Z,24.30
2022-11-12T08:15:16.526Z,18.70
2022-11-12T08:18:01.481Z,19.60
2022-11-12T08:20:46.227Z,17.00
2022-11-12T08:23:31.393Z,13.70
2022-11-12T08:26:18.537Z,14.30
2022-11-12T08:29:08.300Z,18.70
2022-11-12T08:31:53.769Z,30.80
2022-11-12T08:34:40.582Z,23.80
2022-11-12T08:40:11.947Z,11.80
2022-11-12T08:43:01.372Z,14.80
2022-11-12T08:45:47.990Z,13.10
2022-11-12T08:48:34.157Z,21.10
2022-11-12T08:51:19.354Z,21.80
2022-11-12T08:54:04.303Z,24.20
2022-11-12T08:56:49.003Z,18.40
2022-11-12T08:59:34.107Z,14.60
2022-11-12T09:02:19.171Z,21.60
2022-11-12T09:05:04.690Z,17.30
2022-11-12T09:07:56.737Z,16.60
2022-11-12T09:10:42.208Z,24.10
2022-11-12T09:13:27.134Z,20.40
2022-11-12T09:16:12.511Z,26.40
2022-11-12T09:18:57.557Z,24.70
2022-11-12T09:21:42.232Z,17.70
2022-11-12T09:24:27.254Z,16.00
2022-11-12T09:27:12.017Z,15.70
2022-11-12T09:29:57.177Z,18.40
2022-11-12T09:32:42.290Z,25.50
2022-11-12T09:35:27.383Z,22.60
2022-11-12T09:38:14.488Z,23.70
2022-11-12T09:41:21.815Z,18.10
2022-11-12T09:44:13.131Z,21.40
2022-11-12T09:47:04.082Z,33.50
2022-11-12T09:49:57.168Z,23.50
2022-11-12T09:52:47.874Z,19.50
2022-11-12T09:55:42.090Z,17.00
2022-11-12T09:58:27.293Z,14.80
2022-11-12T10:01:21.660Z,29.00
2022-11-12T10:04:28.449Z,15.90
2022-11-12T10:07:43.977Z,19.00
2022-11-12T10:10:36.980Z,20.20
2022-11-12T10:13:30.941Z,13.70
2022-11-12T10:16:45.046Z,28.20
2022-11-12T10:20:00.565Z,22.10
2022-11-12T10:22:54.587Z,25.80
2022-11-12T10:25:42.997Z,14.90
2022-11-12T10:28:41.714Z,20.80
2022-11-12T10:31:26.857Z,18.30
2022-11-12T10:34:20.586Z,17.50
2022-11-12T10:37:21.763Z,16.60
2022-11-12T10:40:38.216Z,17.60
2022-11-12T10:43:24.268Z,20.00
2022-11-12T10:46:18.880Z,16.10
2022-11-12T10:49:09.863Z,18.20
2022-11-12T10:51:57.445Z,14.10
2022-11-12T10:54:42.409Z,13.00
2022-11-12T10:57:27.198Z,17.00
2022-11-12T11:00:12.182Z,13.20
2022-11-12T11:02:58.264Z,15.00
2022-11-12T11:05:55.299Z,19.70
2022-11-12T11:08:46.129Z,21.80
2022-11-12T11:11:31.561Z,14.20
2022-11-12T11:14:22.336Z,14.20
2022-11-12T11:17:15.945Z,16.90
2022-11-12T11:20:02.129Z,14.60
2022-11-12T11:22:55.943Z,12.10
2022-11-12T11:25:42.362Z,13.90
2022-11-12T11:28:45.065Z,15.40
2022-11-12T11:31:52.630Z,20.40
2022-11-12T11:34:53.779Z,16.70
2022-11-12T11:37:55.883Z,19.90
2022-11-12T11:40:59.786Z,11.40
2022-11-12T11:44:01.496Z,16.30
2022-11-12T11:47:05.461Z,13.80
2022-11-12T11:50:19.709Z,15.70
2022-11-12T11:53:28.990Z,15.90
2022-11-12T11:56:26.231Z,17.90
2022-11-12T11:59:36.848Z,21.90
2022-11-12T12:02:22.621Z,14.00
2022-11-12T12:05:29.870Z,17.60
2022-11-12T12:08:40.774Z,16.40
2022-11-12T12:11:44.792Z,17.10
2022-11-12T12:14:36.626Z,14.20
2022-11-12T12:17:49.568Z,16.00
2022-11-12T12:20:53.782Z,22.20
2022-11-12T12:24:20.489Z,20.30
2022-11-12T12:27:21.843Z,10.10
2022-11-12T12:30:17.184Z,12.80
2022-11-12T12:33:15.298Z,15.10
2022-11-12T12:36:10.832Z,13.40
2022-11-12T12:39:17.423Z,23.60
2022-11-12T12:42:21.661Z,21.80
2022-11-12T12:45:24.861Z,19.90
2022-11-12T12:48:24.990Z,18.10
2022-11-12T12:51:10.825Z,12.20
2022-11-12T12:53:55.964Z,14.40
2022-11-12T12:56:46.570Z,20.40
2022-11-12T12:59:31.915Z,21.10
2022-11-12T13:02:23.909Z,17.50
2022-11-12T13:05:29.210Z,20.90
2022-11-12T13:08:22.480Z,16.50
2022-11-12T13:11:07.869Z,19.10
2022-11-12T13:13:52.907Z,15.20
2022-11-12T13:16:50.350Z,25.20
2022-11-12T13:19:42.990Z,19.80
2022-11-12T13:22:37.195Z,29.50
2022-11-12T13:25:28.440Z,21.70
2022-11-12T13:28:13.978Z,19.20
2022-11-12T13:31:00.843Z,15.40
2022-11-12T13:33:47.140Z,18.70
2022-11-12T13:36:32.294Z,16.80
2022-11-12T13:39:19.557Z,15.50
2022-11-12T13:42:36.654Z,21.50
2022-11-12T13:45:24.337Z,23.10
2022-11-12T13:51:10.991Z,20.60
2022-11-12T13:53:55.904Z,15.20
2022-11-12T13:56:40.835Z,21.20
2022-11-12T13:59:25.741Z,21.20
2022-11-12T14:02:21.798Z,18.10
2022-11-12T14:05:18.937Z,29.00
2022-11-12T14:08:22.049Z,21.30
2022-11-12T14:11:20.088Z,23.40
2022-11-12T14:14:23.742Z,21.40
2022-11-12T14:17:59.711Z,26.50
2022-11-12T14:20:46.150Z,19.80
2022-11-12T14:23:31.178Z,21.00
2022-11-12T14:26:42.680Z,20.30
2022-11-12T14:29:32.953Z,27.70
2022-11-12T14:32:19.929Z,30.20
2022-11-12T14:35:29.356Z,23.80
2022-11-12T14:38:27.065Z,22.90
2022-11-12T14:41:18.236Z,22.60
2022-11-12T14:44:13.195Z,26.60
2022-11-12T14:47:00.119Z,21.50
2022-11-12T14:49:48.487Z,27.90
2022-11-12T14:52:41.874Z,23.00
2022-11-12T14:55:30.985Z,20.80
2022-11-12T14:58:18.239Z,20.20
2022-11-12T15:04:45.475Z,19.60
2022-11-12T15:07:34.116Z,19.20
2022-11-12T15:10:38.035Z,22.70
2022-11-12T15:13:26.107Z,24.50
2022-11-12T15:16:18.103Z,22.90
2022-11-12T15:19:05.567Z,20.30
2022-11-12T15:21:53.497Z,23.10
2022-11-12T15:24:40.583Z,19.50
2022-11-12T15:27:37.797Z,19.80
2022-11-12T15:33:23.072Z,27.10
2022-11-12T15:36:19.493Z,27.50
2022-11-12T15:39:14.300Z,24.30
2022-11-12T15:42:04.637Z,21.70
2022-11-12T15:44:57.563Z,17.80
2022-11-12T15:47:44.103Z,22.80
2022-11-12T15:50:31.896Z,19.60
2022-11-12T15:53:18.995Z,26.60
2022-11-12T15:56:08.477Z,28.60
2022-11-12T15:58:55.492Z,24.20
2022-11-12T16:01:41.750Z,24.40
2022-11-12T16:04:28.323Z,27.20
2022-11-12T16:07:14.834Z,23.20
2022-11-12T16:10:00.971Z,28.20
2022-11-12T16:12:48.100Z,25.00
2022-11-12T16:15:35.696Z,16.00
2022-11-12T16:18:23.053Z,23.10
2022-11-12T16:21:09.753Z,32.00
2022-11-12T16:23:56.338Z,25.10
2022-11-12T16:26:42.644Z,28.00
2022-11-12T16:29:29.174Z,24.00
2022-11-12T16:32:19.243Z,25.30
2022-11-12T16:35:07.231Z,24.60
2022-11-12T16:37:54.816Z,14.70
2022-11-12T16:40:42.456Z,24.20
2022-11-12T16:43:28.978Z,30.70
2022-11-12T16:46:28.115Z,31.50
2022-11-12T16:49:15.486Z,27.90
2022-11-12T16:52:01.855Z,29.60
2022-11-12T16:54:48.007Z,28.40
2022-11-12T16:57:34.602Z,25.30
2022-11-12T17:00:23.051Z,30.00
2022-11-12T17:03:12.963Z,26.80
2022-11-12T17:05:59.434Z,30.00
2022-11-12T17:08:55.384Z,33.80
2022-11-12T17:11:41.746Z,29.50
2022-11-12T17:14:28.627Z,31.60
2022-11-12T17:17:15.013Z,27.40
2022-11-12T17:20:01.336Z,26.20
2022-11-12T17:22:47.899Z,25.60
2022-11-12T17:25:33.980Z,24.30
2022-11-12T17:28:20.598Z,33.40
2022-11-12T17:31:10.578Z,31.80
2022-11-12T17:33:56.714Z,31.80
2022-11-12T17:36:43.937Z,28.40
2022-11-12T17:45:04.045Z,21.70
2022-11-12T17:47:50.226Z,23.60
2022-11-12T17:50:36.854Z,28.60
2022-11-12T17:53:23.209Z,28.10
2022-11-12T17:56:12.194Z,24.10
2022-11-12T17:58:59.742Z,29.10
2022-11-12T18:01:46.217Z,28.30
2022-11-12T18:04:32.459Z,22.80
2022-11-12T18:07:18.719Z,24.70
2022-11-12T18:10:05.227Z,23.90
2022-11-12T18:12:52.183Z,27.60
2022-11-12T18:15:38.735Z,25.70
2022-11-12T18:18:24.808Z,24.00
2022-11-12T18:21:13.282Z,22.60
2022-11-12T18:23:59.375Z,22.40
2022-11-12T18:26:46.191Z,26.60
2022-11-12T18:29:32.275Z,24.00
2022-11-12T18:32:18.511Z,26.30
2022-11-12T18:35:05.727Z,31.30
2022-11-12T18:37:52.532Z,28.80
2022-11-12T18:40:38.824Z,30.50
2022-11-12T18:43:25.124Z,23.60
2022-11-12T18:46:11.915Z,22.30
2022-11-12T18:48:58.448Z,22.10
2022-11-12T18:51:44.836Z,22.30
2022-11-12T18:54:30.894Z,22.00
2022-11-12T18:57:17.098Z,26.90
2022-11-12T19:00:04.159Z,28.20
2022-11-12T19:02:51.128Z,30.70
2022-11-12T19:05:37.637Z,26.70
2022-11-12T19:08:23.696Z,23.60
2022-11-12T19:11:12.462Z,23.50
2022-11-12T19:13:59.161Z,26.50
2022-11-12T19:16:45.540Z,23.40
2022-11-12T19:19:31.695Z,27.60
2022-11-12T19:22:18.183Z,30.20
2022-11-12T19:25:04.441Z,27.00
2022-11-12T19:27:50.642Z,28.70
2022-11-12T19:30:37.156Z,24.30
2022-11-12T19:33:24.064Z,23.10
2022-11-12T19:36:14.168Z,19.90
2022-11-12T19:39:02.410Z,22.50
2022-11-12T19:41:48.754Z,23.20
2022-11-12T19:44:35.046Z,24.60
2022-11-12T19:47:21.494Z,29.50
2022-11-12T19:50:08.266Z,26.60
2022-11-12T19:52:54.916Z,26.70
2022-11-12T19:55:41.362Z,25.80
2022-11-12T19:58:28.220Z,23.20
2022-11-12T20:01:17.691Z,29.40
2022-11-12T20:04:04.436Z,30.90
2022-11-12T20:06:50.706Z,34.70
2022-11-12T20:09:36.901Z,32.00
2022-11-12T20:12:25.193Z,29.20
2022-11-12T20:15:11.768Z,30.50
2022-11-12T20:17:57.709Z,30.20
2022-11-12T20:20:54.183Z,32.90
2022-11-12T20:23:45.459Z,35.30
2022-11-12T20:26:31.763Z,33.40
2022-11-12T20:32:43.557Z,35.10
2022-11-12T20:35:30.076Z,31.60
2022-11-12T20:38:16.429Z,33.70
2022-11-12T20:41:04.688Z,27.90
2022-11-12T20:43:57.120Z,32.70
2022-11-12T20:46:43.682Z,33.40
2022-11-12T20:49:29.869Z,29.40
2022-11-12T20:52:16.281Z,30.00
2022-11-12T20:55:02.683Z,26.60
2022-11-12T20:57:49.387Z,30.10
2022-11-12T21:00:35.839Z,29.10
2022-11-12T21:03:21.970Z,31.20
2022-11-12T21:06:11.658Z,35.50
2022-11-12T21:09:00.114Z,32.60
2022-11-12T21:11:46.307Z,29.30
2022-11-12T21:14:32.462Z,27.90
2022-11-12T21:17:19.790Z,31.20
2022-11-12T21:20:06.707Z,25.80
2022-11-12T21:22:53.381Z,32.90
2022-11-12T21:25:40.354Z,36.50
2022-11-12T21:28:27.051Z,32.70
2022-11-12T21:31:17.950Z,29.80
2022-11-12T21:34:04.741Z,33.20
2022-11-12T21:36:51.514Z,25.90
2022-11-12T21:39:37.746Z,34.00
2022-11-12T21:42:24.108Z,32.50
2022-11-12T21:45:11.312Z,29.30
2022-11-12T21:47:57.340Z,26.60
2022-11-12T21:50:43.880Z,28.50
2022-11-12T21:53:30.619Z,26.90
2022-11-12T21:56:18.699Z,28.90
2022-11-12T21:59:05.151Z,28.80
2022-11-12T22:01:51.461Z,27.70
2022-11-12T22:04:38.474Z,27.70
2022-11-12T22:07:25.125Z,26.40
2022-11-12T22:10:11.565Z,24.70
2022-11-12T22:13:25.365Z,24.60
2022-11-12T22:16:07.238Z,25.80
2022-11-12T22:18:54.978Z,25.20
2022-11-12T22:24:27.847Z,27.70
2022-11-12T22:27:14.435Z,26.60
2022-11-12T22:30:00.556Z,26.40
2022-11-12T22:32:46.681Z,29.40
2022-11-12T22:35:33.548Z,22.70
2022-11-12T22:38:19.944Z,25.20
2022-11-12T22:41:08.106Z,25.00
2022-11-12T22:43:56.313Z,29.30
2022-11-12T22:46:42.828Z,25.40
2022-11-12T22:49:29.598Z,26.50
2022-11-12T22:52:15.622Z,27.60
2022-11-12T22:55:02.041Z,27.00
2022-11-12T22:57:48.365Z,23.40
2022-11-12T23:00:34.537Z,25.30
2022-11-12T23:03:20.848Z,22.10
2022-11-12T23:06:07.205Z,28.60
2022-11-12T23:08:55.016Z,27.60
2022-11-12T23:11:41.576Z,27.00
2022-11-12T23:14:27.701Z,24.80
2022-11-12T23:17:14.340Z,23.20
2022-11-12T23:20:00.432Z,20.70
2022-11-12T23:22:46.457Z,26.20
2022-11-12T23:25:34.678Z,29.60
2022-11-12T23:28:21.205Z,26.50
2022-11-12T23:31:13.261Z,25.50
2022-11-12T23:34:00.609Z,19.90
2022-11-12T23:36:46.991Z,23.10
2022-11-12T23:39:33.097Z,22.20
2022-11-12T23:42:19.622Z,25.00
2022-11-12T23:45:06.867Z,26.20
2022-11-12T23:47:54.119Z,25.80
2022-11-12T23:50:40.191Z,24.50
2022-11-12T23:53:26.783Z,24.60
2022-11-12T23:56:15.979Z,22.10
2022-11-12T23:59:02.559Z,23.00
